Date,TemperatureHighF,TemperatureAvgF,TemperatureLowF,DewpointHighF,DewpointAvgF,DewpointLowF,HumidityHigh,HumidityAvg,HumidityLow,PressureMaxIn,PressureMinIn,WindSpeedMaxMPH,WindSpeedAvgMPH,GustSpeedMaxMPH,PrecipitationSumIn
2013-1-1,40,38,27,30,25,12,71,61,48,30.02,29.83,18,8,23,0.00
2013-1-2,34,28,24,18,14,11,61,54,44,30.18,30.00,14,7,22,0.00
2013-1-3,34,30,26,20,17,15,70,60,49,30.20,30.07,11,5,20,0.00
2013-1-4,38,35,32,24,22,21,67,60,52,30.09,29.95,16,7,22,0.00
2013-1-5,44,38,33,25,22,19,61,54,45,30.28,30.02,16,6,25,0.00
2013-1-6,47,40,34,33,29,24,90,67,49,30.23,29.98,11,5,14,0.00
2013-1-7,45,41,35,30,26,21,70,57,39,30.40,30.06,15,4,20,0.00
2013-1-8,49,42,35,34,31,27,78,66,54,30.44,30.34,14,4,16,0.00
2013-1-9,51,44,37,40,36,31,86,73,63,30.39,30.13,13,3,20,0.00
2013-1-10,49,45,41,35,27,24,64,49,38,30.54,30.23,19,7,27,0.00
2013-1-11,47,42,38,46,35,26,97,77,56,30.54,30.09,8,2,12,0.52
2013-1-12,47,44,43,46,44,42,98,97,94,30.18,30.07,10,3,14,0.04
2013-1-13,48,45,43,48,45,42,99,98,97,30.16,30.01,8,2,14,0.00
2013-1-14,58,50,39,54,45,34,100,82,52,30.30,29.93,14,5,20,0.04
2013-1-15,39,38,36,35,29,26,89,72,61,30.34,30.22,10,4,12,0.13
2013-1-16,38,36,33,36,34,30,96,93,82,30.21,29.80,18,4,18,0.84
2013-1-17,44,41,36,35,29,25,88,65,54,30.10,29.91,17,6,18,0.00
2013-1-18,36,30,26,26,12,4,66,49,32,30.49,29.99,19,6,21,0.00
2013-1-19,52,41,30,31,25,14,71,54,38,30.41,29.93,25,7,25,0.00
2013-1-20,55,44,31,32,24,11,69,48,23,30.04,29.69,29,8,31,0.00
2013-1-21,32,30,28,22,14,8,66,50,41,30.10,29.83,20,4,20,0.00
2013-1-22,29,21,14,16,3,-8,70,46,30,30.22,29.83,25,10,25,0.00
2013-1-23,19,16,12,2,-2,-6,56,44,34,30.26,30.17,21,7,22,0.00
2013-1-24,24,18,15,5,1,-4,62,46,31,30.40,30.13,29,8,30,0.00
2013-1-25,25,19,14,18,8,-2,89,62,45,30.42,30.07,20,4,22,0.00
2013-1-26,28,22,17,14,10,6,78,61,43,30.38,30.05,23,7,23,0.00
2013-1-27,35,28,21,14,12,8,69,51,35,30.53,30.37,17,5,17,0.00
2013-1-28,36,33,27,34,26,13,94,78,49,30.49,30.01,14,3,14,0.22
2013-1-29,50,43,36,43,40,34,95,88,71,30.19,30.00,15,3,15,0.03
2013-1-30,53,49,41,52,48,39,99,96,91,30.09,29.38,24,7,24,0.02
2013-1-31,58,45,30,58,31,10,99,62,35,29.79,29.05,30,13,41,0.31